Ardenhurst, Minnesota
Current Conditions -  °F | °C
As of 4:53 PM on Thursday 23 Oct 2014 (Local Time) from KFOZ Reporting Station
Clear Clear  
Wind Chill: 18°   Ceiling: Unl
Heat Index: 18°   Visibility: 10mi
Dew Point:   Wind: 9mph
Humidity: 49%   Direction: 210°SSW
Pressure: 29.87"   Gusts: NA
Location:  47.8312°N, 94.1459°W
Report Text: KFOZ 232153Z AUTO 21008KT 10SM CLR 18/07 A2987 RMK AO2
Loading
Personal Weather Stations






























Interactive Weather Map
Tropical Storm Tracking
New forecast layout! Learn more

10-Day Weather Forecast

Advertisements
Track Severe Weather on mobile